sensor_id;sensor_type;location;lat;lon;timestamp;temperature;humidity
28336;DHT22;15592;53.656;7.276;2022-09-09T00:00:53;14.70;99.90
28336;DHT22;15592;53.656;7.276;2022-09-09T00:03:30;14.60;99.90
28336;DHT22;15592;53.656;7.276;2022-09-09T00:08:31;14.60;99.90
28336;DHT22;15592;53.656;7.276;2022-09-09T00:11:03;14.50;99.90
28336;DHT22;15592;53.656;7.276;2022-09-09T00:13:46;14.50;99.90
28336;DHT22;15592;53.656;7.276;2022-09-09T00:19:20;14.50;99.90
28336;DHT22;15592;53.656;7.276;2022-09-09T00:22:23;14.50;99.90
28336;DHT22;15592;53.656;7.276;2022-09-09T00:24:53;14.50;99.90
28336;DHT22;15592;53.656;7.276;2022-09-09T00:27:41;14.50;99.90
28336;DHT22;15592;53.656;7.276;2022-09-09T00:30:25;14.60;99.90
28336;DHT22;15592;53.656;7.276;2022-09-09T00:32:58;14.50;99.90
28336;DHT22;15592;53.656;7.276;2022-09-09T00:35:32;14.60;99.90
28336;DHT22;15592;53.656;7.276;2022-09-09T00:38:13;14.60;99.90
28336;DHT22;15592;53.656;7.276;2022-09-09T00:40:41;14.60;99.90
28336;DHT22;15592;53.656;7.276;2022-09-09T00:51:36;14.60;99.90
28336;DHT22;15592;53.656;7.276;2022-09-09T00:57:03;14.50;99.90
28336;DHT22;15592;53.656;7.276;2022-09-09T00:59:48;14.40;99.90
28336;DHT22;15592;53.656;7.276;2022-09-09T01:08:02;14.30;99.90
28336;DHT22;15592;53.656;7.276;2022-09-09T01:13:04;14.30;99.90
28336;DHT22;15592;53.656;7.276;2022-09-09T01:15:34;14.20;99.90
28336;DHT22;15592;53.656;7.276;2022-09-09T01:18:15;14.20;99.90
28336;DHT22;15592;53.656;7.276;2022-09-09T01:23:42;14.20;99.90
28336;DHT22;15592;53.656;7.276;2022-09-09T01:28:42;14.10;99.90
28336;DHT22;15592;53.656;7.276;2022-09-09T01:31:11;14.10;99.90
28336;DHT22;15592;53.656;7.276;2022-09-09T01:33:39;14.00;99.90
28336;DHT22;15592;53.656;7.276;2022-09-09T01:36:17;14.00;99.90
28336;DHT22;15592;53.656;7.276;2022-09-09T01:38:45;14.00;99.90
28336;DHT22;15592;53.656;7.276;2022-09-09T01:41:11;14.00;99.90
28336;DHT22;15592;53.656;7.276;2022-09-09T01:43:37;14.00;99.90
28336;DHT22;15592;53.656;7.276;2022-09-09T01:46:03;14.00;99.90
28336;DHT22;15592;53.656;7.276;2022-09-09T01:48:29;14.00;99.90
28336;DHT22;15592;53.656;7.276;2022-09-09T01:50:56;13.90;99.90
28336;DHT22;15592;53.656;7.276;2022-09-09T01:53:22;13.90;99.90
28336;DHT22;15592;53.656;7.276;2022-09-09T01:55:58;13.90;99.90
28336;DHT22;15592;53.656;7.276;2022-09-09T02:01:34;13.80;99.90
28336;DHT22;15592;53.656;7.276;2022-09-09T02:04:04;13.80;99.90
28336;DHT22;15592;53.656;7.276;2022-09-09T02:06:38;13.80;99.90
28336;DHT22;15592;53.656;7.276;2022-09-09T02:09:07;13.80;99.90
28336;DHT22;15592;53.656;7.276;2022-09-09T02:11:36;13.80;99.90
28336;DHT22;15592;53.656;7.276;2022-09-09T02:14:08;13.80;99.90
28336;DHT22;15592;53.656;7.276;2022-09-09T02:16:43;13.80;99.90
28336;DHT22;15592;53.656;7.276;2022-09-09T02:19:21;13.90;99.90
28336;DHT22;15592;53.656;7.276;2022-09-09T02:21:52;13.80;99.90
28336;DHT22;15592;53.656;7.276;2022-09-09T02:24:20;13.90;99.90
28336;DHT22;15592;53.656;7.276;2022-09-09T02:26:49;13.90;99.90
28336;DHT22;15592;53.656;7.276;2022-09-09T02:29:25;13.80;99.90
28336;DHT22;15592;53.656;7.276;2022-09-09T02:31:53;13.80;99.90
28336;DHT22;15592;53.656;7.276;2022-09-09T02:34:22;13.80;99.90
28336;DHT22;15592;53.656;7.276;2022-09-09T02:36:50;13.80;99.90
28336;DHT22;15592;53.656;7.276;2022-09-09T02:39:18;13.80;99.90
28336;DHT22;15592;53.656;7.276;2022-09-09T02:41:44;13.70;99.90
28336;DHT22;15592;53.656;7.276;2022-09-09T02:44:14;13.70;99.90
28336;DHT22;15592;53.656;7.276;2022-09-09T02:52:13;13.70;99.90
28336;DHT22;15592;53.656;7.276;2022-09-09T02:54:42;13.60;99.90
28336;DHT22;15592;53.656;7.276;2022-09-09T02:57:16;13.60;99.90
28336;DHT22;15592;53.656;7.276;2022-09-09T02:59:44;13.60;99.90
28336;DHT22;15592;53.656;7.276;2022-09-09T03:02:10;13.60;99.90
28336;DHT22;15592;53.656;7.276;2022-09-09T03:04:37;13.60;99.90
28336;DHT22;15592;53.656;7.276;2022-09-09T03:07:03;13.60;99.90
28336;DHT22;15592;53.656;7.276;2022-09-09T03:09:30;13.60;99.90
28336;DHT22;15592;53.656;7.276;2022-09-09T03:11:55;13.60;99.90
28336;DHT22;15592;53.656;7.276;2022-09-09T03:14:22;13.60;99.90
28336;DHT22;15592;53.656;7.276;2022-09-09T03:16:51;13.60;99.90
28336;DHT22;15592;53.656;7.276;2022-09-09T03:19:17;13.60;99.90
28336;DHT22;15592;53.656;7.276;2022-09-09T03:21:44;13.60;99.90
28336;DHT22;15592;53.656;7.276;2022-09-09T03:24:11;13.50;99.90
28336;DHT22;15592;53.656;7.276;2022-09-09T03:26:36;13.50;99.90
28336;DHT22;15592;53.656;7.276;2022-09-09T03:29:04;13.50;99.90
28336;DHT22;15592;53.656;7.276;2022-09-09T03:31:35;13.50;99.90
28336;DHT22;15592;53.656;7.276;2022-09-09T03:34:01;13.50;99.90
28336;DHT22;15592;53.656;7.276;2022-09-09T03:36:28;13.50;99.90
28336;DHT22;15592;53.656;7.276;2022-09-09T03:38:54;13.50;99.90
28336;DHT22;15592;53.656;7.276;2022-09-09T03:41:21;13.50;99.90
28336;DHT22;15592;53.656;7.276;2022-09-09T03:43:50;13.40;99.90
28336;DHT22;15592;53.656;7.276;2022-09-09T03:46:16;13.50;99.90
28336;DHT22;15592;53.656;7.276;2022-09-09T03:48:42;13.50;99.90
28336;DHT22;15592;53.656;7.276;2022-09-09T03:51:07;13.50;99.90
28336;DHT22;15592;53.656;7.276;2022-09-09T03:53:33;13.50;99.90
28336;DHT22;15592;53.656;7.276;2022-09-09T03:55:59;13.50;99.90
28336;DHT22;15592;53.656;7.276;2022-09-09T03:58:26;13.60;99.90
28336;DHT22;15592;53.656;7.276;2022-09-09T04:00:56;13.60;99.90
28336;DHT22;15592;53.656;7.276;2022-09-09T04:03:24;13.60;99.90
28336;DHT22;15592;53.656;7.276;2022-09-09T04:05:53;13.60;99.90
28336;DHT22;15592;53.656;7.276;2022-09-09T04:08:20;13.60;99.90
28336;DHT22;15592;53.656;7.276;2022-09-09T04:10:49;13.70;99.90
28336;DHT22;15592;53.656;7.276;2022-09-09T04:13:16;13.70;99.90
28336;DHT22;15592;53.656;7.276;2022-09-09T04:15:44;13.60;99.90
28336;DHT22;15592;53.656;7.276;2022-09-09T04:18:10;13.60;99.90
28336;DHT22;15592;53.656;7.276;2022-09-09T04:20:37;13.60;99.90
28336;DHT22;15592;53.656;7.276;2022-09-09T04:23:03;13.60;99.90
28336;DHT22;15592;53.656;7.276;2022-09-09T04:25:29;13.60;99.90
28336;DHT22;15592;53.656;7.276;2022-09-09T04:27:57;13.60;99.90
28336;DHT22;15592;53.656;7.276;2022-09-09T04:30:24;13.70;99.90
28336;DHT22;15592;53.656;7.276;2022-09-09T04:32:50;13.70;99.90
28336;DHT22;15592;53.656;7.276;2022-09-09T04:35:16;13.70;99.90
28336;DHT22;15592;53.656;7.276;2022-09-09T04:37:42;13.70;99.90
28336;DHT22;15592;53.656;7.276;2022-09-09T04:40:08;13.70;99.90
28336;DHT22;15592;53.656;7.276;2022-09-09T04:42:38;13.70;99.90
28336;DHT22;15592;53.656;7.276;2022-09-09T04:45:05;13.70;99.90
28336;DHT22;15592;53.656;7.276;2022-09-09T04:47:32;13.70;99.90
28336;DHT22;15592;53.656;7.276;2022-09-09T04:49:58;13.70;99.90
28336;DHT22;15592;53.656;7.276;2022-09-09T04:52:24;13.70;99.90
28336;DHT22;15592;53.656;7.276;2022-09-09T04:54:49;13.80;99.90
28336;DHT22;15592;53.656;7.276;2022-09-09T04:57:15;13.80;99.90
28336;DHT22;15592;53.656;7.276;2022-09-09T04:59:40;13.80;99.90
28336;DHT22;15592;53.656;7.276;2022-09-09T05:02:06;13.80;99.90
28336;DHT22;15592;53.656;7.276;2022-09-09T05:04:32;13.80;99.90
28336;DHT22;15592;53.656;7.276;2022-09-09T05:06:58;13.90;99.90
28336;DHT22;15592;53.656;7.276;2022-09-09T05:09:24;13.80;99.90
28336;DHT22;15592;53.656;7.276;2022-09-09T05:11:50;13.80;99.90
28336;DHT22;15592;53.656;7.276;2022-09-09T05:14:15;13.80;99.90
28336;DHT22;15592;53.656;7.276;2022-09-09T05:16:41;13.80;99.90
28336;DHT22;15592;53.656;7.276;2022-09-09T05:19:09;13.90;99.90
28336;DHT22;15592;53.656;7.276;2022-09-09T05:21:35;13.90;99.90
28336;DHT22;15592;53.656;7.276;2022-09-09T05:24:01;13.90;99.90
28336;DHT22;15592;53.656;7.276;2022-09-09T05:26:27;13.80;99.90
28336;DHT22;15592;53.656;7.276;2022-09-09T05:28:54;13.90;99.90
28336;DHT22;15592;53.656;7.276;2022-09-09T05:31:20;13.90;99.90
28336;DHT22;15592;53.656;7.276;2022-09-09T05:33:47;13.90;99.90
28336;DHT22;15592;53.656;7.276;2022-09-09T05:36:15;13.90;99.90
28336;DHT22;15592;53.656;7.276;2022-09-09T05:38:42;14.00;99.90
28336;DHT22;15592;53.656;7.276;2022-09-09T05:41:09;14.00;99.90
28336;DHT22;15592;53.656;7.276;2022-09-09T05:43:36;14.00;99.90
28336;DHT22;15592;53.656;7.276;2022-09-09T05:46:11;14.00;99.90
28336;DHT22;15592;53.656;7.276;2022-09-09T05:48:41;14.00;99.90
28336;DHT22;15592;53.656;7.276;2022-09-09T05:51:09;14.10;99.90
28336;DHT22;15592;53.656;7.276;2022-09-09T05:53:39;14.10;99.90
28336;DHT22;15592;53.656;7.276;2022-09-09T05:56:06;14.10;99.90
28336;DHT22;15592;53.656;7.276;2022-09-09T05:58:33;14.10;99.90
28336;DHT22;15592;53.656;7.276;2022-09-09T06:01:09;14.10;99.90
28336;DHT22;15592;53.656;7.276;2022-09-09T06:03:39;14.20;99.90
28336;DHT22;15592;53.656;7.276;2022-09-09T06:06:08;14.20;99.90
28336;DHT22;15592;53.656;7.276;2022-09-09T06:08:35;14.20;99.90
28336;DHT22;15592;53.656;7.276;2022-09-09T06:11:11;14.20;99.90
28336;DHT22;15592;53.656;7.276;2022-09-09T06:13:37;14.30;99.90
28336;DHT22;15592;53.656;7.276;2022-09-09T06:16:05;14.30;99.90
28336;DHT22;15592;53.656;7.276;2022-09-09T06:18:32;14.40;99.90
28336;DHT22;15592;53.656;7.276;2022-09-09T06:21:03;14.40;99.90
28336;DHT22;15592;53.656;7.276;2022-09-09T06:23:29;14.40;99.90
28336;DHT22;15592;53.656;7.276;2022-09-09T06:28:27;14.50;99.90
28336;DHT22;15592;53.656;7.276;2022-09-09T06:31:04;14.60;99.90
28336;DHT22;15592;53.656;7.276;2022-09-09T06:33:40;14.60;99.90
28336;DHT22;15592;53.656;7.276;2022-09-09T06:36:14;14.60;99.90
28336;DHT22;15592;53.656;7.276;2022-09-09T06:38:41;14.70;99.90
28336;DHT22;15592;53.656;7.276;2022-09-09T06:41:08;14.70;99.90
28336;DHT22;15592;53.656;7.276;2022-09-09T06:43:34;14.70;99.90
28336;DHT22;15592;53.656;7.276;2022-09-09T06:48:29;14.70;99.90
28336;DHT22;15592;53.656;7.276;2022-09-09T06:53:27;14.70;99.90
28336;DHT22;15592;53.656;7.276;2022-09-09T06:55:53;14.70;99.90
28336;DHT22;15592;53.656;7.276;2022-09-09T06:58:18;14.80;99.90
28336;DHT22;15592;53.656;7.276;2022-09-09T07:00:44;14.70;99.90
28336;DHT22;15592;53.656;7.276;2022-09-09T07:03:10;14.70;99.90
28336;DHT22;15592;53.656;7.276;2022-09-09T07:05:36;14.70;99.90
28336;DHT22;15592;53.656;7.276;2022-09-09T07:08:02;14.70;99.90
28336;DHT22;15592;53.656;7.276;2022-09-09T07:10:28;14.70;99.90
28336;DHT22;15592;53.656;7.276;2022-09-09T07:12:54;14.60;99.90
28336;DHT22;15592;53.656;7.276;2022-09-09T07:15:20;14.60;99.90
28336;DHT22;15592;53.656;7.276;2022-09-09T07:17:48;14.60;99.90
28336;DHT22;15592;53.656;7.276;2022-09-09T07:20:14;14.60;99.90
28336;DHT22;15592;53.656;7.276;2022-09-09T07:22:40;14.60;99.90
28336;DHT22;15592;53.656;7.276;2022-09-09T07:25:07;14.60;99.90
28336;DHT22;15592;53.656;7.276;2022-09-09T07:27:33;14.60;99.90
28336;DHT22;15592;53.656;7.276;2022-09-09T07:29:58;14.60;99.90
28336;DHT22;15592;53.656;7.276;2022-09-09T07:32:24;14.70;99.90
28336;DHT22;15592;53.656;7.276;2022-09-09T07:34:51;14.70;99.90
28336;DHT22;15592;53.656;7.276;2022-09-09T07:37:16;14.70;99.90
28336;DHT22;15592;53.656;7.276;2022-09-09T07:39:43;14.70;99.90
28336;DHT22;15592;53.656;7.276;2022-09-09T07:42:09;14.80;99.90
28336;DHT22;15592;53.656;7.276;2022-09-09T07:45:04;14.80;99.90
28336;DHT22;15592;53.656;7.276;2022-09-09T07:47:30;14.80;99.90
28336;DHT22;15592;53.656;7.276;2022-09-09T07:49:56;14.90;99.90
28336;DHT22;15592;53.656;7.276;2022-09-09T07:52:22;14.90;99.90
28336;DHT22;15592;53.656;7.276;2022-09-09T07:54:55;14.90;99.90
28336;DHT22;15592;53.656;7.276;2022-09-09T07:57:22;15.00;99.90
28336;DHT22;15592;53.656;7.276;2022-09-09T07:59:54;15.00;99.90
28336;DHT22;15592;53.656;7.276;2022-09-09T08:05:26;15.00;99.90
28336;DHT22;15592;53.656;7.276;2022-09-09T08:08:00;15.00;99.90
28336;DHT22;15592;53.656;7.276;2022-09-09T08:10:25;15.00;99.90
28336;DHT22;15592;53.656;7.276;2022-09-09T08:12:51;14.90;99.90
28336;DHT22;15592;53.656;7.276;2022-09-09T08:15:17;15.00;99.90
28336;DHT22;15592;53.656;7.276;2022-09-09T08:17:43;15.00;99.90
28336;DHT22;15592;53.656;7.276;2022-09-09T08:20:10;15.00;99.90
28336;DHT22;15592;53.656;7.276;2022-09-09T08:22:36;15.10;99.90
28336;DHT22;15592;53.656;7.276;2022-09-09T08:25:03;15.10;99.90
28336;DHT22;15592;53.656;7.276;2022-09-09T08:27:31;15.20;99.90
28336;DHT22;15592;53.656;7.276;2022-09-09T08:29:58;15.30;99.90
28336;DHT22;15592;53.656;7.276;2022-09-09T08:32:24;15.30;99.90
28336;DHT22;15592;53.656;7.276;2022-09-09T08:34:49;15.30;99.90
28336;DHT22;15592;53.656;7.276;2022-09-09T08:37:16;15.40;99.90
28336;DHT22;15592;53.656;7.276;2022-09-09T08:39:42;15.40;99.90
28336;DHT22;15592;53.656;7.276;2022-09-09T08:42:30;15.40;99.90
28336;DHT22;15592;53.656;7.276;2022-09-09T08:50:34;15.60;99.90
28336;DHT22;15592;53.656;7.276;2022-09-09T08:53:09;15.70;99.90
28336;DHT22;15592;53.656;7.276;2022-09-09T08:55:57;15.70;99.90
28336;DHT22;15592;53.656;7.276;2022-09-09T08:58:26;15.90;99.90
28336;DHT22;15592;53.656;7.276;2022-09-09T09:09:35;16.20;99.90
28336;DHT22;15592;53.656;7.276;2022-09-09T09:12:21;16.30;99.90
28336;DHT22;15592;53.656;7.276;2022-09-09T09:14:48;16.40;99.90
28336;DHT22;15592;53.656;7.276;2022-09-09T09:17:18;16.50;99.90
28336;DHT22;15592;53.656;7.276;2022-09-09T09:19:45;16.60;99.90
28336;DHT22;15592;53.656;7.276;2022-09-09T09:22:25;16.70;99.90
28336;DHT22;15592;53.656;7.276;2022-09-09T09:25:23;16.60;99.90
28336;DHT22;15592;53.656;7.276;2022-09-09T09:30:20;16.60;99.90
28336;DHT22;15592;53.656;7.276;2022-09-09T09:32:55;16.50;99.90
28336;DHT22;15592;53.656;7.276;2022-09-09T09:35:23;16.50;99.90
28336;DHT22;15592;53.656;7.276;2022-09-09T09:37:49;16.50;99.90
28336;DHT22;15592;53.656;7.276;2022-09-09T09:40:17;16.50;99.90
28336;DHT22;15592;53.656;7.276;2022-09-09T09:42:55;16.50;99.90
28336;DHT22;15592;53.656;7.276;2022-09-09T09:45:29;16.50;99.90
28336;DHT22;15592;53.656;7.276;2022-09-09T09:48:03;16.60;99.90
28336;DHT22;15592;53.656;7.276;2022-09-09T09:50:29;16.80;99.90
28336;DHT22;15592;53.656;7.276;2022-09-09T09:52:59;17.00;99.90
28336;DHT22;15592;53.656;7.276;2022-09-09T09:55:27;17.20;99.90
28336;DHT22;15592;53.656;7.276;2022-09-09T09:58:02;17.40;99.90
28336;DHT22;15592;53.656;7.276;2022-09-09T10:00:27;17.60;99.90
28336;DHT22;15592;53.656;7.276;2022-09-09T10:02:53;17.70;99.90
28336;DHT22;15592;53.656;7.276;2022-09-09T10:05:23;17.80;99.90
28336;DHT22;15592;53.656;7.276;2022-09-09T10:10:51;17.80;99.90
28336;DHT22;15592;53.656;7.276;2022-09-09T10:13:45;17.90;99.90
28336;DHT22;15592;53.656;7.276;2022-09-09T10:16:25;17.80;99.90
28336;DHT22;15592;53.656;7.276;2022-09-09T10:19:09;17.80;99.90
28336;DHT22;15592;53.656;7.276;2022-09-09T10:22:02;17.90;99.90
28336;DHT22;15592;53.656;7.276;2022-09-09T10:24:52;18.00;99.90
28336;DHT22;15592;53.656;7.276;2022-09-09T10:29:57;18.10;99.90
28336;DHT22;15592;53.656;7.276;2022-09-09T10:32:49;18.20;99.90
28336;DHT22;15592;53.656;7.276;2022-09-09T10:54:56;18.40;99.90
28336;DHT22;15592;53.656;7.276;2022-09-09T10:57:31;18.30;99.90
28336;DHT22;15592;53.656;7.276;2022-09-09T11:00:04;18.30;99.90
28336;DHT22;15592;53.656;7.276;2022-09-09T11:02:32;18.20;99.90
28336;DHT22;15592;53.656;7.276;2022-09-09T11:05:20;18.20;99.90
28336;DHT22;15592;53.656;7.276;2022-09-09T11:07:57;18.20;99.90
28336;DHT22;15592;53.656;7.276;2022-09-09T11:13:20;18.10;99.90
28336;DHT22;15592;53.656;7.276;2022-09-09T11:15:54;18.00;99.90
28336;DHT22;15592;53.656;7.276;2022-09-09T11:18:23;18.00;99.90
28336;DHT22;15592;53.656;7.276;2022-09-09T11:20:58;18.00;99.90
28336;DHT22;15592;53.656;7.276;2022-09-09T11:23:29;18.10;99.90
28336;DHT22;15592;53.656;7.276;2022-09-09T11:26:02;18.20;99.90
28336;DHT22;15592;53.656;7.276;2022-09-09T11:34:12;18.60;99.90
28336;DHT22;15592;53.656;7.276;2022-09-09T11:41:49;18.80;99.90
28336;DHT22;15592;53.656;7.276;2022-09-09T11:44:29;18.90;99.90
28336;DHT22;15592;53.656;7.276;2022-09-09T11:46:56;18.90;99.90
28336;DHT22;15592;53.656;7.276;2022-09-09T11:49:28;18.80;99.90
28336;DHT22;15592;53.656;7.276;2022-09-09T11:51:56;18.70;99.90
28336;DHT22;15592;53.656;7.276;2022-09-09T11:54:32;18.60;99.90
28336;DHT22;15592;53.656;7.276;2022-09-09T11:56:58;18.50;99.90
28336;DHT22;15592;53.656;7.276;2022-09-09T11:59:30;18.60;99.90
28336;DHT22;15592;53.656;7.276;2022-09-09T12:01:57;18.70;99.90
28336;DHT22;15592;53.656;7.276;2022-09-09T12:04:42;18.80;99.90
28336;DHT22;15592;53.656;7.276;2022-09-09T12:12:36;19.30;99.90
28336;DHT22;15592;53.656;7.276;2022-09-09T12:17:43;19.40;99.90
28336;DHT22;15592;53.656;7.276;2022-09-09T12:20:33;19.30;99.90
28336;DHT22;15592;53.656;7.276;2022-09-09T12:23:40;19.30;99.90
28336;DHT22;15592;53.656;7.276;2022-09-09T12:28:52;19.30;99.90
28336;DHT22;15592;53.656;7.276;2022-09-09T12:31:25;19.30;99.90
28336;DHT22;15592;53.656;7.276;2022-09-09T12:33:53;19.40;99.90
28336;DHT22;15592;53.656;7.276;2022-09-09T12:36:25;19.50;99.90
28336;DHT22;15592;53.656;7.276;2022-09-09T12:38:53;19.50;99.90
28336;DHT22;15592;53.656;7.276;2022-09-09T12:41:26;19.60;99.90
28336;DHT22;15592;53.656;7.276;2022-09-09T12:44:03;19.60;99.90
28336;DHT22;15592;53.656;7.276;2022-09-09T12:46:38;19.60;99.90
28336;DHT22;15592;53.656;7.276;2022-09-09T12:49:18;19.60;99.90
28336;DHT22;15592;53.656;7.276;2022-09-09T12:51:48;19.50;99.90
28336;DHT22;15592;53.656;7.276;2022-09-09T12:54:14;19.50;99.90
28336;DHT22;15592;53.656;7.276;2022-09-09T12:56:45;19.60;99.90
28336;DHT22;15592;53.656;7.276;2022-09-09T12:59:23;19.50;99.90
28336;DHT22;15592;53.656;7.276;2022-09-09T13:01:58;19.40;99.90
28336;DHT22;15592;53.656;7.276;2022-09-09T13:04:24;19.40;99.90
28336;DHT22;15592;53.656;7.276;2022-09-09T13:06:50;19.40;99.90
28336;DHT22;15592;53.656;7.276;2022-09-09T13:09:17;19.50;99.90
28336;DHT22;15592;53.656;7.276;2022-09-09T13:11:46;19.50;99.90
28336;DHT22;15592;53.656;7.276;2022-09-09T13:16:56;19.50;99.90
28336;DHT22;15592;53.656;7.276;2022-09-09T13:19:22;19.60;99.90
28336;DHT22;15592;53.656;7.276;2022-09-09T13:21:51;19.70;99.90
28336;DHT22;15592;53.656;7.276;2022-09-09T13:24:34;19.70;99.90
28336;DHT22;15592;53.656;7.276;2022-09-09T13:27:19;19.70;99.90
28336;DHT22;15592;53.656;7.276;2022-09-09T13:29:52;19.60;99.90
28336;DHT22;15592;53.656;7.276;2022-09-09T13:32:22;19.50;99.90
28336;DHT22;15592;53.656;7.276;2022-09-09T13:34:53;19.50;99.90
28336;DHT22;15592;53.656;7.276;2022-09-09T13:37:26;19.50;99.90
28336;DHT22;15592;53.656;7.276;2022-09-09T13:39:54;19.40;99.90
28336;DHT22;15592;53.656;7.276;2022-09-09T13:42:25;19.40;99.90
28336;DHT22;15592;53.656;7.276;2022-09-09T13:44:51;19.50;99.90
28336;DHT22;15592;53.656;7.276;2022-09-09T13:47:19;19.60;99.90
28336;DHT22;15592;53.656;7.276;2022-09-09T13:49:45;19.80;99.90
28336;DHT22;15592;53.656;7.276;2022-09-09T13:52:12;19.80;99.90
28336;DHT22;15592;53.656;7.276;2022-09-09T13:54:42;19.90;99.90
28336;DHT22;15592;53.656;7.276;2022-09-09T13:57:19;19.90;99.90
28336;DHT22;15592;53.656;7.276;2022-09-09T13:59:46;19.90;99.90
28336;DHT22;15592;53.656;7.276;2022-09-09T14:02:12;19.80;99.90
28336;DHT22;15592;53.656;7.276;2022-09-09T14:04:38;19.80;99.90
28336;DHT22;15592;53.656;7.276;2022-09-09T14:07:11;19.80;99.90
28336;DHT22;15592;53.656;7.276;2022-09-09T14:09:37;19.80;99.90
28336;DHT22;15592;53.656;7.276;2022-09-09T14:12:03;19.70;99.90
28336;DHT22;15592;53.656;7.276;2022-09-09T14:14:29;19.70;99.90
28336;DHT22;15592;53.656;7.276;2022-09-09T14:16:55;19.80;99.90
28336;DHT22;15592;53.656;7.276;2022-09-09T14:19:21;19.70;99.90
28336;DHT22;15592;53.656;7.276;2022-09-09T14:21:46;19.60;99.90
28336;DHT22;15592;53.656;7.276;2022-09-09T14:24:12;19.50;99.90
28336;DHT22;15592;53.656;7.276;2022-09-09T14:26:38;19.50;99.90
28336;DHT22;15592;53.656;7.276;2022-09-09T14:29:03;19.40;99.90
28336;DHT22;15592;53.656;7.276;2022-09-09T14:31:29;19.30;99.90
28336;DHT22;15592;53.656;7.276;2022-09-09T14:33:54;19.30;99.90
28336;DHT22;15592;53.656;7.276;2022-09-09T14:36:20;19.30;99.90
28336;DHT22;15592;53.656;7.276;2022-09-09T14:38:46;19.30;99.90
28336;DHT22;15592;53.656;7.276;2022-09-09T14:41:15;19.20;99.90
28336;DHT22;15592;53.656;7.276;2022-09-09T14:43:45;19.30;99.90
28336;DHT22;15592;53.656;7.276;2022-09-09T14:46:13;19.20;99.90
28336;DHT22;15592;53.656;7.276;2022-09-09T14:48:39;19.20;99.90
28336;DHT22;15592;53.656;7.276;2022-09-09T14:53:43;19.20;99.90
28336;DHT22;15592;53.656;7.276;2022-09-09T14:56:17;19.20;99.90
28336;DHT22;15592;53.656;7.276;2022-09-09T14:58:44;19.20;99.90
28336;DHT22;15592;53.656;7.276;2022-09-09T15:01:12;19.20;99.90
28336;DHT22;15592;53.656;7.276;2022-09-09T15:03:39;19.20;99.90
28336;DHT22;15592;53.656;7.276;2022-09-09T15:06:13;19.10;99.90
28336;DHT22;15592;53.656;7.276;2022-09-09T15:08:41;19.10;99.90
28336;DHT22;15592;53.656;7.276;2022-09-09T15:11:07;19.00;99.90
28336;DHT22;15592;53.656;7.276;2022-09-09T15:13:34;18.90;99.90
28336;DHT22;15592;53.656;7.276;2022-09-09T15:16:07;18.90;99.90
28336;DHT22;15592;53.656;7.276;2022-09-09T15:18:34;18.80;99.90
28336;DHT22;15592;53.656;7.276;2022-09-09T15:21:04;18.80;99.90
28336;DHT22;15592;53.656;7.276;2022-09-09T15:23:34;18.80;99.90
28336;DHT22;15592;53.656;7.276;2022-09-09T15:25:59;18.80;99.90
28336;DHT22;15592;53.656;7.276;2022-09-09T15:28:25;18.70;99.90
28336;DHT22;15592;53.656;7.276;2022-09-09T15:30:52;18.70;99.90
28336;DHT22;15592;53.656;7.276;2022-09-09T15:33:19;18.60;99.90
28336;DHT22;15592;53.656;7.276;2022-09-09T15:35:45;18.60;99.90
28336;DHT22;15592;53.656;7.276;2022-09-09T15:38:10;18.40;99.90
28336;DHT22;15592;53.656;7.276;2022-09-09T15:40:38;18.30;99.90
28336;DHT22;15592;53.656;7.276;2022-09-09T15:43:05;18.10;99.90
28336;DHT22;15592;53.656;7.276;2022-09-09T15:45:32;17.70;99.90
28336;DHT22;15592;53.656;7.276;2022-09-09T15:47:59;17.50;99.90
28336;DHT22;15592;53.656;7.276;2022-09-09T15:50:25;17.30;99.90
28336;DHT22;15592;53.656;7.276;2022-09-09T15:52:51;17.20;99.90
28336;DHT22;15592;53.656;7.276;2022-09-09T15:55:18;17.00;99.90
28336;DHT22;15592;53.656;7.276;2022-09-09T15:57:46;16.90;99.90
28336;DHT22;15592;53.656;7.276;2022-09-09T16:00:12;16.90;99.90
28336;DHT22;15592;53.656;7.276;2022-09-09T16:02:38;16.90;99.90
28336;DHT22;15592;53.656;7.276;2022-09-09T16:05:04;16.80;99.90
28336;DHT22;15592;53.656;7.276;2022-09-09T16:07:30;16.80;99.90
28336;DHT22;15592;53.656;7.276;2022-09-09T16:09:56;16.80;99.90
28336;DHT22;15592;53.656;7.276;2022-09-09T16:12:21;16.80;99.90
28336;DHT22;15592;53.656;7.276;2022-09-09T16:14:47;16.70;99.90
28336;DHT22;15592;53.656;7.276;2022-09-09T16:17:12;16.70;99.90
28336;DHT22;15592;53.656;7.276;2022-09-09T16:19:39;16.70;99.90
28336;DHT22;15592;53.656;7.276;2022-09-09T16:22:05;16.70;99.90
28336;DHT22;15592;53.656;7.276;2022-09-09T16:24:32;16.80;99.90
28336;DHT22;15592;53.656;7.276;2022-09-09T16:26:58;16.80;99.90
28336;DHT22;15592;53.656;7.276;2022-09-09T16:29:24;16.80;99.90
28336;DHT22;15592;53.656;7.276;2022-09-09T16:31:53;16.80;99.90
28336;DHT22;15592;53.656;7.276;2022-09-09T16:34:19;16.90;99.90
28336;DHT22;15592;53.656;7.276;2022-09-09T16:36:46;17.00;99.90
28336;DHT22;15592;53.656;7.276;2022-09-09T16:39:15;17.00;99.90
28336;DHT22;15592;53.656;7.276;2022-09-09T16:41:42;17.00;99.90
28336;DHT22;15592;53.656;7.276;2022-09-09T16:44:10;17.00;99.90
28336;DHT22;15592;53.656;7.276;2022-09-09T16:46:39;17.00;99.90
28336;DHT22;15592;53.656;7.276;2022-09-09T16:49:07;17.00;99.90
28336;DHT22;15592;53.656;7.276;2022-09-09T16:51:41;17.10;99.90
28336;DHT22;15592;53.656;7.276;2022-09-09T16:54:09;17.10;99.90
28336;DHT22;15592;53.656;7.276;2022-09-09T16:56:40;17.10;99.90
28336;DHT22;15592;53.656;7.276;2022-09-09T16:59:14;17.00;99.90
28336;DHT22;15592;53.656;7.276;2022-09-09T17:01:41;17.00;99.90
28336;DHT22;15592;53.656;7.276;2022-09-09T17:04:10;17.00;99.90
28336;DHT22;15592;53.656;7.276;2022-09-09T17:06:38;17.00;99.90
28336;DHT22;15592;53.656;7.276;2022-09-09T17:09:06;16.90;99.90
28336;DHT22;15592;53.656;7.276;2022-09-09T17:11:32;16.90;99.90
28336;DHT22;15592;53.656;7.276;2022-09-09T17:13:59;16.90;99.90
28336;DHT22;15592;53.656;7.276;2022-09-09T17:16:27;16.80;99.90
28336;DHT22;15592;53.656;7.276;2022-09-09T17:18:55;16.80;99.90
28336;DHT22;15592;53.656;7.276;2022-09-09T17:21:23;16.70;99.90
28336;DHT22;15592;53.656;7.276;2022-09-09T17:23:50;16.70;99.90
28336;DHT22;15592;53.656;7.276;2022-09-09T17:26:19;16.70;99.90
28336;DHT22;15592;53.656;7.276;2022-09-09T17:28:45;16.60;99.90
28336;DHT22;15592;53.656;7.276;2022-09-09T17:31:13;16.60;99.90
28336;DHT22;15592;53.656;7.276;2022-09-09T17:33:41;16.50;99.90
28336;DHT22;15592;53.656;7.276;2022-09-09T17:36:11;16.50;99.90
28336;DHT22;15592;53.656;7.276;2022-09-09T17:38:37;16.50;99.90
28336;DHT22;15592;53.656;7.276;2022-09-09T17:41:33;16.50;99.90
28336;DHT22;15592;53.656;7.276;2022-09-09T17:43:59;16.50;99.90
28336;DHT22;15592;53.656;7.276;2022-09-09T17:49:00;16.50;99.90